createdAt,value
2023-05-05T00:00:22.962Z,98579.91
2023-05-05T00:03:26.348Z,98576.88
2023-05-05T00:06:31.298Z,98575.41
2023-05-05T00:09:33.936Z,98569.19
2023-05-05T00:12:36.522Z,98567.94
2023-05-05T00:15:39.370Z,98568.47
2023-05-05T00:18:42.014Z,98566.63
2023-05-05T00:21:45.907Z,98572.59
2023-05-05T00:24:48.415Z,98561.75
2023-05-05T00:27:51.044Z,98562.91
2023-05-05T00:30:53.610Z,98566.41
2023-05-05T00:33:56.722Z,98564.69
2023-05-05T00:37:00.598Z,98562.22
2023-05-05T00:40:03.366Z,98568.44
2023-05-05T00:43:06.101Z,98566.66
2023-05-05T00:46:16.071Z,98567.13
2023-05-05T00:49:18.757Z,98572.78
2023-05-05T00:52:22.980Z,98570.03
2023-05-05T00:55:26.133Z,98564.44
2023-05-05T00:58:29.242Z,98567.91
2023-05-05T01:01:31.866Z,98567.28
2023-05-05T01:04:34.524Z,98561.41
2023-05-05T01:07:45.825Z,98560.53
2023-05-05T01:10:53.504Z,98561.16
2023-05-05T01:14:03.620Z,98564.97
2023-05-05T01:17:13.904Z,98564.69
2023-05-05T01:20:22.154Z,98570.09
2023-05-05T01:23:38.422Z,98563.72
2023-05-05T01:26:53.837Z,98561.00
2023-05-05T01:30:07.060Z,98551.31
2023-05-05T01:33:12.720Z,98552.31
2023-05-05T01:36:22.921Z,98558.59
2023-05-05T01:39:29.612Z,98561.88
2023-05-05T01:42:33.583Z,98556.34
2023-05-05T01:45:39.403Z,98556.75
2023-05-05T01:48:43.818Z,98560.72
2023-05-05T01:51:47.449Z,98553.94
2023-05-05T01:54:51.150Z,98564.34
2023-05-05T01:57:54.302Z,98557.19
2023-05-05T02:00:58.749Z,98557.38
2023-05-05T02:04:03.086Z,98555.47
2023-05-05T02:07:06.053Z,98563.41
2023-05-05T02:10:09.558Z,98560.91
2023-05-05T02:13:13.440Z,98567.31
2023-05-05T02:16:16.463Z,98566.34
2023-05-05T02:19:21.100Z,98567.50
2023-05-05T02:22:23.653Z,98573.00
2023-05-05T02:25:27.475Z,98568.38
2023-05-05T02:28:35.014Z,98566.03
2023-05-05T02:31:40.610Z,98580.53
2023-05-05T02:34:47.409Z,98578.84
2023-05-05T02:37:52.451Z,98580.50
2023-05-05T02:40:56.323Z,98578.25
2023-05-05T02:43:59.817Z,98583.41
2023-05-05T02:47:03.735Z,98590.41
2023-05-05T02:50:09.663Z,98583.78
2023-05-05T02:53:12.508Z,98590.97
2023-05-05T02:56:22.249Z,98594.59
2023-05-05T02:59:32.438Z,98589.22
2023-05-05T03:02:42.664Z,98587.81
2023-05-05T03:05:51.392Z,98592.00
2023-05-05T03:08:57.695Z,98590.56
2023-05-05T03:12:02.260Z,98588.22
2023-05-05T03:15:06.214Z,98598.44
2023-05-05T03:18:10.521Z,98604.47
2023-05-05T03:21:14.637Z,98610.50
2023-05-05T03:24:18.539Z,98605.09
2023-05-05T03:27:21.402Z,98605.22
2023-05-05T03:30:24.439Z,98600.50
2023-05-05T03:33:26.994Z,98609.44
2023-05-05T03:36:31.859Z,98603.88
2023-05-05T03:39:34.449Z,98595.69
2023-05-05T03:42:37.064Z,98612.19
2023-05-05T03:45:39.650Z,98606.69
2023-05-05T03:48:42.824Z,98602.00
2023-05-05T03:51:47.229Z,98600.50
2023-05-05T03:54:50.969Z,98599.50
2023-05-05T03:57:53.513Z,98605.50
2023-05-05T04:00:56.693Z,98615.09
2023-05-05T04:03:59.381Z,98606.25
2023-05-05T04:07:03.880Z,98611.59
2023-05-05T04:10:08.108Z,98603.16
2023-05-05T04:13:10.958Z,98600.56
2023-05-05T04:16:13.880Z,98608.66
2023-05-05T04:19:16.626Z,98611.13
2023-05-05T04:22:20.510Z,98610.44
2023-05-05T04:25:23.190Z,98608.91
2023-05-05T04:28:25.914Z,98603.38
2023-05-05T04:31:29.108Z,98601.44
2023-05-05T04:34:31.618Z,98601.63
2023-05-05T04:37:35.726Z,98606.22
2023-05-05T04:40:40.128Z,98599.78
2023-05-05T04:43:42.687Z,98617.38
2023-05-05T04:46:45.538Z,98621.25
2023-05-05T04:49:48.188Z,98619.31
2023-05-05T04:52:52.800Z,98622.00
2023-05-05T04:55:55.492Z,98625.84
2023-05-05T04:58:58.025Z,98624.97
2023-05-05T05:02:00.554Z,98632.91
2023-05-05T05:05:03.313Z,98637.88
2023-05-05T05:08:07.539Z,98640.19
2023-05-05T05:11:10.052Z,98647.91
2023-05-05T05:14:12.605Z,98641.09
2023-05-05T05:17:15.168Z,98647.03
2023-05-05T05:20:17.658Z,98656.88
2023-05-05T05:23:21.668Z,98659.66
2023-05-05T05:26:24.225Z,98655.41
2023-05-05T05:29:27.058Z,98651.69
2023-05-05T05:32:29.807Z,98649.69
2023-05-05T05:35:32.529Z,98653.78
2023-05-05T05:38:36.751Z,98646.66
2023-05-05T05:41:39.230Z,98656.97
2023-05-05T05:44:41.996Z,98660.56
2023-05-05T05:47:44.505Z,98655.69
2023-05-05T05:50:47.168Z,98664.00
2023-05-05T05:53:51.844Z,98664.28
2023-05-05T05:56:54.450Z,98669.59
2023-05-05T05:59:59.219Z,98683.53
2023-05-05T06:03:03.136Z,98684.84
2023-05-05T06:06:05.982Z,98685.97
2023-05-05T06:09:09.906Z,98681.38
2023-05-05T06:12:12.442Z,98679.44
2023-05-05T06:15:15.275Z,98675.13
2023-05-05T06:18:18.043Z,98678.31
2023-05-05T06:21:20.899Z,98678.56
2023-05-05T06:24:25.087Z,98677.19
2023-05-05T06:27:27.847Z,98673.34
2023-05-05T06:30:30.524Z,98677.75
2023-05-05T06:33:33.329Z,98682.13
2023-05-05T06:36:35.986Z,98685.28
2023-05-05T06:39:40.061Z,98693.53
2023-05-05T06:42:42.628Z,98689.88
2023-05-05T06:45:46.116Z,98688.25
2023-05-05T06:48:48.676Z,98690.53
2023-05-05T06:51:51.487Z,98687.69
2023-05-05T06:54:55.640Z,98690.53
2023-05-05T06:57:58.312Z,98689.75
2023-05-05T07:01:00.873Z,98692.97
2023-05-05T07:04:03.536Z,98695.69
2023-05-05T07:07:06.521Z,98692.84
2023-05-05T07:10:11.051Z,98703.25
2023-05-05T07:13:13.848Z,98701.69
2023-05-05T07:16:16.619Z,98697.75
2023-05-05T07:19:19.190Z,98700.47
2023-05-05T07:22:21.712Z,98705.53
2023-05-05T07:25:25.813Z,98695.59
2023-05-05T07:28:28.542Z,98705.63
2023-05-05T07:31:31.346Z,98699.22
2023-05-05T07:34:34.891Z,98711.53
2023-05-05T07:37:37.660Z,98709.56
2023-05-05T07:40:42.095Z,98712.31
2023-05-05T07:43:44.865Z,98712.66
2023-05-05T07:46:47.675Z,98714.31
2023-05-05T07:49:50.488Z,98709.94
2023-05-05T07:52:59.262Z,98718.16
2023-05-05T07:56:14.437Z,98716.63
2023-05-05T07:59:16.959Z,98716.28
2023-05-05T08:02:20.046Z,98724.22
2023-05-05T08:05:22.438Z,98730.53
2023-05-05T08:08:26.910Z,98736.41
2023-05-05T08:11:31.057Z,98738.41
2023-05-05T08:14:33.942Z,98737.38
2023-05-05T08:17:50.294Z,98735.78
2023-05-05T08:20:53.464Z,98738.59
2023-05-05T08:23:56.165Z,98731.88
2023-05-05T08:27:00.129Z,98727.91
2023-05-05T08:30:03.968Z,98728.13
2023-05-05T08:33:06.930Z,98738.28
2023-05-05T08:36:09.882Z,98734.88
2023-05-05T08:39:12.506Z,98736.25
2023-05-05T08:42:28.983Z,98733.31
2023-05-05T08:45:36.091Z,98733.38
2023-05-05T08:48:41.424Z,98737.34
2023-05-05T08:51:45.356Z,98738.88
2023-05-05T08:54:52.465Z,98736.97
2023-05-05T08:57:58.460Z,98740.50
2023-05-05T09:01:01.744Z,98742.44
2023-05-05T09:04:05.101Z,98734.06
2023-05-05T09:07:08.593Z,98740.00
2023-05-05T09:10:12.761Z,98741.53
2023-05-05T09:13:17.047Z,98729.78
2023-05-05T09:16:20.074Z,98728.59
2023-05-05T09:19:23.201Z,98734.72
2023-05-05T09:22:33.387Z,98729.00
2023-05-05T09:25:36.795Z,98728.28
2023-05-05T09:28:52.981Z,98729.28
2023-05-05T09:32:05.877Z,98723.22
2023-05-05T09:35:09.716Z,98721.50
2023-05-05T09:38:12.925Z,98709.34
2023-05-05T09:41:15.926Z,98712.03
2023-05-05T09:44:34.705Z,98714.81
2023-05-05T09:47:37.773Z,98718.03
2023-05-05T09:50:44.579Z,98715.06
2023-05-05T09:53:47.266Z,98705.94
2023-05-05T09:56:50.880Z,98710.81
2023-05-05T09:59:59.182Z,98711.75
2023-05-05T10:03:04.296Z,98707.47
2023-05-05T10:06:07.915Z,98709.47
2023-05-05T10:09:10.803Z,98706.50
2023-05-05T10:12:13.843Z,98697.81
2023-05-05T10:15:18.343Z,98696.84
2023-05-05T10:18:23.239Z,98694.69
2023-05-05T10:21:26.471Z,98694.16
2023-05-05T10:24:36.220Z,98688.00
2023-05-05T10:27:44.414Z,98681.06
2023-05-05T10:30:50.368Z,98685.81
2023-05-05T10:33:55.841Z,98677.34
2023-05-05T10:37:00.432Z,98677.03
2023-05-05T10:40:03.713Z,98684.50
2023-05-05T10:43:07.540Z,98679.06
2023-05-05T10:46:13.138Z,98677.94
2023-05-05T10:49:23.107Z,98680.53
2023-05-05T10:52:30.169Z,98668.34
2023-05-05T10:55:37.858Z,98677.31
2023-05-05T10:58:58.452Z,98667.25
2023-05-05T11:02:19.584Z,98660.97
2023-05-05T11:05:22.542Z,98645.50
2023-05-05T11:08:28.143Z,98644.38
2023-05-05T11:12:03.861Z,98634.69
2023-05-05T11:15:37.392Z,98640.81
2023-05-05T11:18:44.507Z,98641.13
2023-05-05T11:22:01.226Z,98633.88
2023-05-05T11:25:48.097Z,98631.88
2023-05-05T11:29:04.714Z,98628.56
2023-05-05T11:32:14.166Z,98630.00
2023-05-05T11:35:18.872Z,98636.53
2023-05-05T11:38:25.381Z,98629.72
2023-05-05T11:41:39.361Z,98630.34
2023-05-05T11:44:42.486Z,98623.44
2023-05-05T11:47:45.482Z,98625.91
2023-05-05T11:50:49.609Z,98631.31
2023-05-05T11:53:52.613Z,98629.44
2023-05-05T11:56:56.607Z,98629.09
2023-05-05T12:00:01.813Z,98628.09
2023-05-05T12:03:05.198Z,98629.06
2023-05-05T12:06:09.827Z,98620.75
2023-05-05T12:09:16.601Z,98626.72
2023-05-05T12:12:20.200Z,98617.22
2023-05-05T12:15:30.060Z,98613.50
2023-05-05T12:18:32.543Z,98609.44
2023-05-05T12:21:36.610Z,98597.13
2023-05-05T12:24:39.452Z,98593.81
2023-05-05T12:27:42.857Z,98595.31
2023-05-05T12:30:57.384Z,98582.16
2023-05-05T12:34:00.019Z,98581.41
2023-05-05T12:37:04.369Z,98582.97
2023-05-05T12:40:08.761Z,98582.91
2023-05-05T12:43:11.889Z,98574.28
2023-05-05T12:46:15.159Z,98575.75
2023-05-05T12:49:18.099Z,98565.06
2023-05-05T12:52:22.688Z,98573.00
2023-05-05T12:55:37.075Z,98561.34
2023-05-05T12:58:49.279Z,98557.34
2023-05-05T13:01:53.081Z,98552.84
2023-05-05T13:04:56.259Z,98544.25
2023-05-05T13:08:00.770Z,98535.41
2023-05-05T13:11:03.401Z,98533.25
2023-05-05T13:14:07.699Z,98529.56
2023-05-05T13:17:11.218Z,98517.38
2023-05-05T13:20:14.084Z,98515.28
2023-05-05T13:23:19.407Z,98515.81
2023-05-05T13:26:22.460Z,98515.16
2023-05-05T13:29:29.508Z,98497.09
2023-05-05T13:32:33.985Z,98497.94
2023-05-05T13:35:36.561Z,98491.13
2023-05-05T13:38:41.100Z,98484.91
2023-05-05T13:41:44.746Z,98485.28
2023-05-05T13:44:47.634Z,98469.06
2023-05-05T13:47:51.060Z,98469.97
2023-05-05T13:50:53.920Z,98456.84
2023-05-05T13:53:57.935Z,98447.69
2023-05-05T13:57:00.570Z,98433.94
2023-05-05T14:00:04.404Z,98422.50
2023-05-05T14:03:07.274Z,98416.31
2023-05-05T14:06:10.665Z,98413.56
2023-05-05T14:09:14.882Z,98410.66
2023-05-05T14:12:17.443Z,98404.41
2023-05-05T14:15:20.473Z,98402.69
2023-05-05T14:18:23.406Z,98402.66
2023-05-05T14:21:26.053Z,98403.28
2023-05-05T14:24:30.252Z,98410.91
2023-05-05T14:27:32.947Z,98408.84
2023-05-05T14:30:35.962Z,98420.44
2023-05-05T14:33:38.701Z,98429.38
2023-05-05T14:36:41.218Z,98426.81
2023-05-05T14:39:45.104Z,98425.28
2023-05-05T14:42:49.172Z,98419.13
2023-05-05T14:45:52.710Z,98414.78
2023-05-05T14:48:55.601Z,98408.75
2023-05-05T14:51:58.893Z,98400.50
2023-05-05T14:55:03.026Z,98400.13
2023-05-05T14:58:05.677Z,98392.22
2023-05-05T15:01:08.505Z,98391.28
2023-05-05T15:04:11.106Z,98383.22
2023-05-05T15:07:13.688Z,98387.34
2023-05-05T15:10:21.166Z,98398.31
2023-05-05T15:13:24.632Z,98399.22
2023-05-05T15:16:27.802Z,98411.59
2023-05-05T15:19:30.855Z,98405.88
2023-05-05T15:22:33.412Z,98403.13
2023-05-05T15:25:37.494Z,98390.16
2023-05-05T15:28:40.206Z,98385.97
2023-05-05T15:31:43.495Z,98381.84
2023-05-05T15:34:47.643Z,98393.25
2023-05-05T15:37:51.659Z,98391.78
2023-05-05T15:40:55.903Z,98399.06
2023-05-05T15:43:58.624Z,98406.44
2023-05-05T15:47:01.516Z,98408.09
2023-05-05T15:50:04.254Z,98411.31
2023-05-05T15:53:06.876Z,98411.41
2023-05-05T15:56:11.856Z,98417.09
2023-05-05T15:59:14.512Z,98415.97
2023-05-05T16:02:17.059Z,98422.88
2023-05-05T16:05:22.233Z,98421.47
2023-05-05T16:08:25.672Z,98424.78
2023-05-05T16:11:29.661Z,98438.28
2023-05-05T16:14:32.729Z,98447.38
2023-05-05T16:17:35.231Z,98452.44
2023-05-05T16:20:37.795Z,98458.91
2023-05-05T16:23:40.799Z,98459.47
2023-05-05T16:26:44.914Z,98472.63
2023-05-05T16:29:47.669Z,98464.06
2023-05-05T16:32:51.969Z,98477.34
2023-05-05T16:35:54.730Z,98472.56
2023-05-05T16:38:57.355Z,98485.13
2023-05-05T16:42:02.739Z,98500.78
2023-05-05T16:45:06.975Z,98498.22
2023-05-05T16:48:09.874Z,98522.22
2023-05-05T16:51:12.714Z,98526.81
2023-05-05T16:54:15.219Z,98534.03
2023-05-05T16:57:19.350Z,98537.56
2023-05-05T17:00:22.069Z,98528.03
2023-05-05T17:03:24.705Z,98526.59
2023-05-05T17:06:27.645Z,98532.41
2023-05-05T17:09:30.356Z,98525.19
2023-05-05T17:12:34.425Z,98525.69
2023-05-05T17:15:37.451Z,98520.69
2023-05-05T17:18:40.000Z,98525.31
2023-05-05T17:21:43.121Z,98536.53
2023-05-05T17:24:45.606Z,98537.09
2023-05-05T17:27:49.784Z,98532.09
2023-05-05T17:30:52.433Z,98543.97
2023-05-05T17:33:54.881Z,98545.94
2023-05-05T17:36:58.198Z,98554.31
2023-05-05T17:40:00.708Z,98555.31
2023-05-05T17:43:04.599Z,98558.19
2023-05-05T17:46:07.363Z,98546.25
2023-05-05T17:49:10.033Z,98551.66
2023-05-05T17:52:12.619Z,98553.97
2023-05-05T17:55:15.323Z,98538.41
2023-05-05T17:58:19.600Z,98533.09
2023-05-05T18:01:22.508Z,98531.25
2023-05-05T18:04:25.395Z,98547.44
2023-05-05T18:07:28.605Z,98543.03
2023-05-05T18:10:31.861Z,98546.47
2023-05-05T18:13:35.935Z,98536.81
2023-05-05T18:16:38.768Z,98532.13
2023-05-05T18:19:46.590Z,98536.56
2023-05-05T18:22:52.280Z,98542.78
2023-05-05T18:25:55.305Z,98539.84
2023-05-05T18:28:59.232Z,98549.25
2023-05-05T18:32:01.893Z,98551.50
2023-05-05T18:35:04.893Z,98557.81
2023-05-05T18:38:07.742Z,98557.94
2023-05-05T18:41:10.851Z,98564.44
2023-05-05T18:44:14.824Z,98563.88
2023-05-05T18:47:17.391Z,98559.16
2023-05-05T18:50:20.141Z,98566.56
2023-05-05T18:53:22.774Z,98567.34
2023-05-05T18:56:25.411Z,98571.78
2023-05-05T18:59:29.378Z,98577.81
2023-05-05T19:02:32.274Z,98595.31
2023-05-05T19:05:34.952Z,98595.91
2023-05-05T19:08:37.599Z,98599.97
2023-05-05T19:11:41.832Z,98603.91
2023-05-05T19:14:46.055Z,98608.63
2023-05-05T19:17:48.915Z,98612.19
2023-05-05T19:20:51.592Z,98616.41
2023-05-05T19:23:54.156Z,98619.19
2023-05-05T19:26:56.939Z,98613.84
2023-05-05T19:30:01.062Z,98617.03
2023-05-05T19:33:03.682Z,98617.03
2023-05-05T19:36:06.548Z,98612.25
2023-05-05T19:39:09.105Z,98622.91
2023-05-05T19:42:11.599Z,98619.84
2023-05-05T19:45:16.289Z,98631.41
2023-05-05T19:48:19.258Z,98634.84
2023-05-05T19:51:22.027Z,98629.19
2023-05-05T19:54:25.273Z,98638.63
2023-05-05T19:57:28.348Z,98630.16
2023-05-05T20:00:32.249Z,98638.47
2023-05-05T20:03:34.921Z,98650.91
2023-05-05T20:06:37.594Z,98649.50
2023-05-05T20:09:40.176Z,98662.38
2023-05-05T20:12:48.147Z,98664.19
2023-05-05T20:15:52.598Z,98666.16
2023-05-05T20:18:55.649Z,98672.09
2023-05-05T20:21:58.194Z,98660.75
2023-05-05T20:25:00.778Z,98666.59
2023-05-05T20:28:03.389Z,98669.78
2023-05-05T20:31:07.615Z,98666.59
2023-05-05T20:34:10.290Z,98663.59
2023-05-05T20:37:13.881Z,98661.56
2023-05-05T20:40:16.731Z,98656.53
2023-05-05T20:43:19.510Z,98655.13
2023-05-05T20:46:23.386Z,98666.16
2023-05-05T20:49:26.181Z,98662.06
2023-05-05T20:52:28.876Z,98674.69
2023-05-05T20:55:31.592Z,98676.41
2023-05-05T20:58:34.254Z,98666.94
2023-05-05T21:01:38.123Z,98668.81
2023-05-05T21:04:40.799Z,98670.09
2023-05-05T21:07:44.617Z,98665.00
2023-05-05T21:10:47.218Z,98659.47
2023-05-05T21:13:49.894Z,98661.38
2023-05-05T21:16:53.900Z,98657.13
2023-05-05T21:19:56.933Z,98655.31
2023-05-05T21:22:59.524Z,98655.13
2023-05-05T21:26:03.359Z,98653.34
2023-05-05T21:29:06.596Z,98655.41
2023-05-05T21:32:12.425Z,98655.75
2023-05-05T21:35:15.144Z,98644.94
2023-05-05T21:38:17.602Z,98658.00
2023-05-05T21:41:20.131Z,98658.81
2023-05-05T21:44:22.897Z,98655.75
2023-05-05T21:47:26.943Z,98654.50
2023-05-05T21:50:29.677Z,98647.78
2023-05-05T21:53:32.322Z,98640.56
2023-05-05T21:56:35.039Z,98638.47
2023-05-05T21:59:37.728Z,98642.81
2023-05-05T22:02:41.672Z,98647.97
2023-05-05T22:05:44.593Z,98644.88
2023-05-05T22:08:47.782Z,98633.03
2023-05-05T22:11:50.412Z,98627.16
2023-05-05T22:14:52.947Z,98625.84
2023-05-05T22:17:57.016Z,98623.59
2023-05-05T22:20:59.698Z,98629.91
2023-05-05T22:24:02.272Z,98620.34
2023-05-05T22:27:05.048Z,98628.66
2023-05-05T22:30:09.159Z,98631.00
2023-05-05T22:33:13.160Z,98631.88
2023-05-05T22:36:15.951Z,98634.34
2023-05-05T22:39:19.759Z,98642.63
2023-05-05T22:42:22.441Z,98635.56
2023-05-05T22:45:25.271Z,98630.78
2023-05-05T22:48:29.178Z,98636.94
2023-05-05T22:51:31.823Z,98638.38
2023-05-05T22:54:34.541Z,98638.47
2023-05-05T22:57:37.492Z,98636.94
2023-05-05T23:00:40.126Z,98637.25
2023-05-05T23:03:44.195Z,98633.38
2023-05-05T23:06:47.066Z,98631.81
2023-05-05T23:09:49.743Z,98631.91
2023-05-05T23:12:52.937Z,98633.56
2023-05-05T23:15:55.693Z,98638.72
2023-05-05T23:18:59.730Z,98632.69
2023-05-05T23:22:02.786Z,98625.59
2023-05-05T23:25:05.704Z,98637.78
2023-05-05T23:28:08.322Z,98631.81
2023-05-05T23:31:10.989Z,98639.28
2023-05-05T23:34:14.947Z,98641.97
2023-05-05T23:37:17.490Z,98638.31
2023-05-05T23:40:20.286Z,98641.59
2023-05-05T23:43:22.879Z,98636.16
2023-05-05T23:46:25.657Z,98634.63
2023-05-05T23:49:29.524Z,98636.97
2023-05-05T23:52:32.371Z,98636.88
2023-05-05T23:55:35.084Z,98644.59
2023-05-05T23:58:37.686Z,98636.81
